sensor_id;sensor_type;location;lat;lon;timestamp;temperature;humidity
12632;DHT22;6381;45.748;12.106;2023-02-19T00:00:04;9.90;99.90
12632;DHT22;6381;45.748;12.106;2023-02-19T00:02:39;9.70;99.90
12632;DHT22;6381;45.748;12.106;2023-02-19T00:05:27;9.70;99.90
12632;DHT22;6381;45.748;12.106;2023-02-19T00:07:57;9.80;99.90
12632;DHT22;6381;45.748;12.106;2023-02-19T00:10:26;9.70;99.90
12632;DHT22;6381;45.748;12.106;2023-02-19T00:13:12;9.90;99.90
12632;DHT22;6381;45.748;12.106;2023-02-19T00:15:41;9.80;99.90
12632;DHT22;6381;45.748;12.106;2023-02-19T00:18:11;9.90;99.90
12632;DHT22;6381;45.748;12.106;2023-02-19T00:20:41;10.20;99.90
12632;DHT22;6381;45.748;12.106;2023-02-19T00:23:10;9.90;99.90
12632;DHT22;6381;45.748;12.106;2023-02-19T00:25:39;9.50;99.90
12632;DHT22;6381;45.748;12.106;2023-02-19T00:28:08;9.50;99.90
12632;DHT22;6381;45.748;12.106;2023-02-19T00:30:55;9.70;99.90
12632;DHT22;6381;45.748;12.106;2023-02-19T00:33:24;9.70;99.90
12632;DHT22;6381;45.748;12.106;2023-02-19T00:35:59;9.70;99.90
12632;DHT22;6381;45.748;12.106;2023-02-19T00:38:28;9.60;99.90
12632;DHT22;6381;45.748;12.106;2023-02-19T00:40:58;9.50;99.90
12632;DHT22;6381;45.748;12.106;2023-02-19T00:43:46;9.60;99.90
12632;DHT22;6381;45.748;12.106;2023-02-19T00:46:17;9.80;99.90
12632;DHT22;6381;45.748;12.106;2023-02-19T00:48:47;9.50;99.90
12632;DHT22;6381;45.748;12.106;2023-02-19T00:51:18;9.50;99.90
12632;DHT22;6381;45.748;12.106;2023-02-19T00:53:48;9.70;99.90
12632;DHT22;6381;45.748;12.106;2023-02-19T00:56:17;9.70;99.90
12632;DHT22;6381;45.748;12.106;2023-02-19T00:58:47;9.70;99.90
12632;DHT22;6381;45.748;12.106;2023-02-19T01:01:17;9.70;99.90
12632;DHT22;6381;45.748;12.106;2023-02-19T01:03:47;9.70;99.90
12632;DHT22;6381;45.748;12.106;2023-02-19T01:06:19;9.40;99.90
12632;DHT22;6381;45.748;12.106;2023-02-19T01:08:48;9.50;99.90
12632;DHT22;6381;45.748;12.106;2023-02-19T01:11:18;9.50;99.90
12632;DHT22;6381;45.748;12.106;2023-02-19T01:13:47;9.70;99.90
12632;DHT22;6381;45.748;12.106;2023-02-19T01:16:33;9.70;99.90
12632;DHT22;6381;45.748;12.106;2023-02-19T01:19:19;9.50;99.90
12632;DHT22;6381;45.748;12.106;2023-02-19T01:21:50;9.70;99.90
12632;DHT22;6381;45.748;12.106;2023-02-19T01:24:19;9.70;99.90
12632;DHT22;6381;45.748;12.106;2023-02-19T01:27:05;9.70;99.90
12632;DHT22;6381;45.748;12.106;2023-02-19T01:29:34;9.70;99.90
12632;DHT22;6381;45.748;12.106;2023-02-19T01:32:03;9.40;99.90
12632;DHT22;6381;45.748;12.106;2023-02-19T01:34:50;9.50;99.90
12632;DHT22;6381;45.748;12.106;2023-02-19T01:37:20;9.40;99.90
12632;DHT22;6381;45.748;12.106;2023-02-19T01:39:49;9.70;99.90
12632;DHT22;6381;45.748;12.106;2023-02-19T01:42:18;9.50;99.90
12632;DHT22;6381;45.748;12.106;2023-02-19T01:45:15;9.70;99.90
12632;DHT22;6381;45.748;12.106;2023-02-19T01:48:08;9.70;99.90
12632;DHT22;6381;45.748;12.106;2023-02-19T01:50:40;9.60;99.90
12632;DHT22;6381;45.748;12.106;2023-02-19T01:53:17;9.60;99.90
12632;DHT22;6381;45.748;12.106;2023-02-19T01:55:49;9.80;99.90
12632;DHT22;6381;45.748;12.106;2023-02-19T01:58:37;9.70;99.90
12632;DHT22;6381;45.748;12.106;2023-02-19T02:01:07;9.60;99.90
12632;DHT22;6381;45.748;12.106;2023-02-19T02:03:39;9.40;99.90
12632;DHT22;6381;45.748;12.106;2023-02-19T02:06:14;9.50;99.90
12632;DHT22;6381;45.748;12.106;2023-02-19T02:08:47;9.50;99.90
12632;DHT22;6381;45.748;12.106;2023-02-19T02:11:35;9.50;99.90
12632;DHT22;6381;45.748;12.106;2023-02-19T02:14:04;9.50;99.90
12632;DHT22;6381;45.748;12.106;2023-02-19T02:16:39;9.40;99.90
12632;DHT22;6381;45.748;12.106;2023-02-19T02:19:25;9.40;99.90
12632;DHT22;6381;45.748;12.106;2023-02-19T02:22:05;9.40;99.90
12632;DHT22;6381;45.748;12.106;2023-02-19T02:27:52;9.30;99.90
12632;DHT22;6381;45.748;12.106;2023-02-19T02:30:40;9.40;99.90
12632;DHT22;6381;45.748;12.106;2023-02-19T02:33:34;9.50;99.90
12632;DHT22;6381;45.748;12.106;2023-02-19T02:36:06;9.40;99.90
12632;DHT22;6381;45.748;12.106;2023-02-19T02:38:40;9.10;99.90
12632;DHT22;6381;45.748;12.106;2023-02-19T02:41:11;9.40;99.90
12632;DHT22;6381;45.748;12.106;2023-02-19T02:43:41;9.40;99.90
12632;DHT22;6381;45.748;12.106;2023-02-19T02:46:12;9.50;99.90
12632;DHT22;6381;45.748;12.106;2023-02-19T02:48:45;9.50;99.90
12632;DHT22;6381;45.748;12.106;2023-02-19T02:51:42;9.60;99.90
12632;DHT22;6381;45.748;12.106;2023-02-19T02:54:23;9.60;99.90
12632;DHT22;6381;45.748;12.106;2023-02-19T02:57:18;9.50;99.90
12632;DHT22;6381;45.748;12.106;2023-02-19T02:59:53;9.30;99.90
12632;DHT22;6381;45.748;12.106;2023-02-19T03:02:27;9.40;99.90
12632;DHT22;6381;45.748;12.106;2023-02-19T03:05:02;9.40;99.90
12632;DHT22;6381;45.748;12.106;2023-02-19T03:07:51;9.40;99.90
12632;DHT22;6381;45.748;12.106;2023-02-19T03:10:27;9.30;99.90
12632;DHT22;6381;45.748;12.106;2023-02-19T03:13:21;9.40;99.90
12632;DHT22;6381;45.748;12.106;2023-02-19T03:16:14;9.50;99.90
12632;DHT22;6381;45.748;12.106;2023-02-19T03:19:04;9.40;99.90
12632;DHT22;6381;45.748;12.106;2023-02-19T03:21:51;9.30;99.90
12632;DHT22;6381;45.748;12.106;2023-02-19T03:24:26;9.40;99.90
12632;DHT22;6381;45.748;12.106;2023-02-19T03:27:16;9.40;99.90
12632;DHT22;6381;45.748;12.106;2023-02-19T03:29:51;9.40;99.90
12632;DHT22;6381;45.748;12.106;2023-02-19T03:32:26;9.20;99.90
12632;DHT22;6381;45.748;12.106;2023-02-19T03:35:01;9.40;99.90
12632;DHT22;6381;45.748;12.106;2023-02-19T03:37:37;9.20;99.90
12632;DHT22;6381;45.748;12.106;2023-02-19T03:40:08;9.40;99.90
12632;DHT22;6381;45.748;12.106;2023-02-19T03:42:42;9.40;99.90
12632;DHT22;6381;45.748;12.106;2023-02-19T03:45:32;9.30;99.90
12632;DHT22;6381;45.748;12.106;2023-02-19T03:48:22;9.30;99.90
12632;DHT22;6381;45.748;12.106;2023-02-19T03:51:02;9.10;99.90
12632;DHT22;6381;45.748;12.106;2023-02-19T03:53:39;9.30;99.90
12632;DHT22;6381;45.748;12.106;2023-02-19T03:56:12;9.30;99.90
12632;DHT22;6381;45.748;12.106;2023-02-19T03:59:08;9.20;99.90
12632;DHT22;6381;45.748;12.106;2023-02-19T04:01:58;9.30;99.90
12632;DHT22;6381;45.748;12.106;2023-02-19T04:04:31;9.30;99.90
12632;DHT22;6381;45.748;12.106;2023-02-19T04:07:21;9.20;99.90
12632;DHT22;6381;45.748;12.106;2023-02-19T04:09:51;9.30;99.90
12632;DHT22;6381;45.748;12.106;2023-02-19T04:12:22;9.40;99.90
12632;DHT22;6381;45.748;12.106;2023-02-19T04:14:58;9.40;99.90
12632;DHT22;6381;45.748;12.106;2023-02-19T04:17:33;9.30;99.90
12632;DHT22;6381;45.748;12.106;2023-02-19T04:20:07;9.40;99.90
12632;DHT22;6381;45.748;12.106;2023-02-19T04:22:39;9.30;99.90
12632;DHT22;6381;45.748;12.106;2023-02-19T04:25:09;9.40;99.90
12632;DHT22;6381;45.748;12.106;2023-02-19T04:27:55;9.40;99.90
12632;DHT22;6381;45.748;12.106;2023-02-19T04:30:24;9.40;99.90
12632;DHT22;6381;45.748;12.106;2023-02-19T04:32:54;9.40;99.90
12632;DHT22;6381;45.748;12.106;2023-02-19T04:35:23;9.30;99.90
12632;DHT22;6381;45.748;12.106;2023-02-19T04:37:53;9.40;99.90
12632;DHT22;6381;45.748;12.106;2023-02-19T04:40:22;9.40;99.90
12632;DHT22;6381;45.748;12.106;2023-02-19T04:42:51;9.40;99.90
12632;DHT22;6381;45.748;12.106;2023-02-19T04:45:20;9.50;99.90
12632;DHT22;6381;45.748;12.106;2023-02-19T04:47:49;9.40;99.90
12632;DHT22;6381;45.748;12.106;2023-02-19T04:50:18;9.30;99.90
12632;DHT22;6381;45.748;12.106;2023-02-19T04:52:49;9.20;99.90
12632;DHT22;6381;45.748;12.106;2023-02-19T04:55:19;9.20;99.90
12632;DHT22;6381;45.748;12.106;2023-02-19T04:58:06;9.20;99.90
12632;DHT22;6381;45.748;12.106;2023-02-19T05:00:35;9.30;99.90
12632;DHT22;6381;45.748;12.106;2023-02-19T05:03:04;9.30;99.90
12632;DHT22;6381;45.748;12.106;2023-02-19T05:05:34;9.20;99.90
12632;DHT22;6381;45.748;12.106;2023-02-19T05:08:03;9.30;99.90
12632;DHT22;6381;45.748;12.106;2023-02-19T05:10:33;9.40;99.90
12632;DHT22;6381;45.748;12.106;2023-02-19T05:13:02;9.20;99.90
12632;DHT22;6381;45.748;12.106;2023-02-19T05:15:31;9.30;99.90
12632;DHT22;6381;45.748;12.106;2023-02-19T05:18:01;9.30;99.90
12632;DHT22;6381;45.748;12.106;2023-02-19T05:20:30;9.10;99.90
12632;DHT22;6381;45.748;12.106;2023-02-19T05:23:17;9.50;99.90
12632;DHT22;6381;45.748;12.106;2023-02-19T05:25:48;9.60;99.90
12632;DHT22;6381;45.748;12.106;2023-02-19T05:28:17;9.50;99.90
12632;DHT22;6381;45.748;12.106;2023-02-19T05:30:48;9.40;99.90
12632;DHT22;6381;45.748;12.106;2023-02-19T05:33:19;9.30;99.90
12632;DHT22;6381;45.748;12.106;2023-02-19T05:36:09;9.30;99.90
12632;DHT22;6381;45.748;12.106;2023-02-19T05:38:38;9.40;99.90
12632;DHT22;6381;45.748;12.106;2023-02-19T05:41:28;9.30;99.90
12632;DHT22;6381;45.748;12.106;2023-02-19T05:43:57;9.50;99.90
12632;DHT22;6381;45.748;12.106;2023-02-19T05:46:45;9.40;99.90
12632;DHT22;6381;45.748;12.106;2023-02-19T05:49:14;9.30;99.90
12632;DHT22;6381;45.748;12.106;2023-02-19T05:51:43;9.30;99.90
12632;DHT22;6381;45.748;12.106;2023-02-19T05:54:12;9.20;99.90
12632;DHT22;6381;45.748;12.106;2023-02-19T05:57:00;9.10;99.90
12632;DHT22;6381;45.748;12.106;2023-02-19T05:59:29;9.40;99.90
12632;DHT22;6381;45.748;12.106;2023-02-19T06:01:58;9.30;99.90
12632;DHT22;6381;45.748;12.106;2023-02-19T06:04:27;9.20;99.90
12632;DHT22;6381;45.748;12.106;2023-02-19T06:06:56;9.30;99.90
12632;DHT22;6381;45.748;12.106;2023-02-19T06:09:25;9.20;99.90
12632;DHT22;6381;45.748;12.106;2023-02-19T06:11:54;9.30;99.90
12632;DHT22;6381;45.748;12.106;2023-02-19T06:14:25;9.30;99.90
12632;DHT22;6381;45.748;12.106;2023-02-19T06:17:11;9.40;99.90
12632;DHT22;6381;45.748;12.106;2023-02-19T06:19:40;9.50;99.90
12632;DHT22;6381;45.748;12.106;2023-02-19T06:22:09;9.40;99.90
12632;DHT22;6381;45.748;12.106;2023-02-19T06:24:38;9.40;99.90
12632;DHT22;6381;45.748;12.106;2023-02-19T06:27:07;9.50;99.90
12632;DHT22;6381;45.748;12.106;2023-02-19T06:29:39;9.20;99.90
12632;DHT22;6381;45.748;12.106;2023-02-19T06:32:08;9.40;99.90
12632;DHT22;6381;45.748;12.106;2023-02-19T06:34:37;9.40;99.90
12632;DHT22;6381;45.748;12.106;2023-02-19T06:37:06;9.30;99.90
12632;DHT22;6381;45.748;12.106;2023-02-19T06:39:35;9.60;99.90
12632;DHT22;6381;45.748;12.106;2023-02-19T06:42:04;9.40;99.90
12632;DHT22;6381;45.748;12.106;2023-02-19T06:44:33;9.30;99.90
12632;DHT22;6381;45.748;12.106;2023-02-19T06:47:04;9.50;99.90
12632;DHT22;6381;45.748;12.106;2023-02-19T06:49:33;9.40;99.90
12632;DHT22;6381;45.748;12.106;2023-02-19T06:52:02;9.50;99.90
12632;DHT22;6381;45.748;12.106;2023-02-19T06:54:31;9.50;99.90
12632;DHT22;6381;45.748;12.106;2023-02-19T06:57:01;9.40;99.90
12632;DHT22;6381;45.748;12.106;2023-02-19T06:59:30;9.50;99.90
12632;DHT22;6381;45.748;12.106;2023-02-19T07:01:59;9.50;99.90
12632;DHT22;6381;45.748;12.106;2023-02-19T07:04:29;9.50;99.90
12632;DHT22;6381;45.748;12.106;2023-02-19T07:07:17;9.60;99.90
12632;DHT22;6381;45.748;12.106;2023-02-19T07:09:46;9.50;99.90
12632;DHT22;6381;45.748;12.106;2023-02-19T07:12:15;9.50;99.90
12632;DHT22;6381;45.748;12.106;2023-02-19T07:14:44;9.30;99.90
12632;DHT22;6381;45.748;12.106;2023-02-19T07:17:13;9.40;99.90
12632;DHT22;6381;45.748;12.106;2023-02-19T07:19:43;9.40;99.90
12632;DHT22;6381;45.748;12.106;2023-02-19T07:22:12;9.40;99.90
12632;DHT22;6381;45.748;12.106;2023-02-19T07:24:59;9.50;99.90
12632;DHT22;6381;45.748;12.106;2023-02-19T07:27:31;9.40;99.90
12632;DHT22;6381;45.748;12.106;2023-02-19T07:30:00;9.40;99.90
12632;DHT22;6381;45.748;12.106;2023-02-19T07:32:29;9.30;99.90
12632;DHT22;6381;45.748;12.106;2023-02-19T07:35:00;9.40;99.90
12632;DHT22;6381;45.748;12.106;2023-02-19T07:37:29;9.40;99.90
12632;DHT22;6381;45.748;12.106;2023-02-19T07:39:59;9.30;99.90
12632;DHT22;6381;45.748;12.106;2023-02-19T07:42:28;9.20;99.90
12632;DHT22;6381;45.748;12.106;2023-02-19T07:44:57;9.20;99.90
12632;DHT22;6381;45.748;12.106;2023-02-19T07:47:28;9.40;99.90
12632;DHT22;6381;45.748;12.106;2023-02-19T07:50:16;9.50;99.90
12632;DHT22;6381;45.748;12.106;2023-02-19T07:53:02;9.50;99.90
12632;DHT22;6381;45.748;12.106;2023-02-19T07:55:49;9.60;99.90
12632;DHT22;6381;45.748;12.106;2023-02-19T07:58:18;9.60;99.90
12632;DHT22;6381;45.748;12.106;2023-02-19T08:00:48;9.60;99.90
12632;DHT22;6381;45.748;12.106;2023-02-19T08:03:17;9.50;99.90
12632;DHT22;6381;45.748;12.106;2023-02-19T08:05:47;9.60;99.90
12632;DHT22;6381;45.748;12.106;2023-02-19T08:08:17;9.80;99.90
12632;DHT22;6381;45.748;12.106;2023-02-19T08:10:47;9.60;99.90
12632;DHT22;6381;45.748;12.106;2023-02-19T08:13:33;9.80;99.90
12632;DHT22;6381;45.748;12.106;2023-02-19T08:16:10;9.60;99.90
12632;DHT22;6381;45.748;12.106;2023-02-19T08:18:50;9.60;99.90
12632;DHT22;6381;45.748;12.106;2023-02-19T08:21:21;9.60;99.90
12632;DHT22;6381;45.748;12.106;2023-02-19T08:24:08;9.90;99.90
12632;DHT22;6381;45.748;12.106;2023-02-19T08:26:37;9.60;99.90
12632;DHT22;6381;45.748;12.106;2023-02-19T08:29:06;9.80;99.90
12632;DHT22;6381;45.748;12.106;2023-02-19T08:31:52;9.60;99.90
12632;DHT22;6381;45.748;12.106;2023-02-19T08:34:39;9.60;99.90
12632;DHT22;6381;45.748;12.106;2023-02-19T08:37:28;9.90;99.90
12632;DHT22;6381;45.748;12.106;2023-02-19T08:40:16;10.00;99.90
12632;DHT22;6381;45.748;12.106;2023-02-19T08:42:45;9.90;99.90
12632;DHT22;6381;45.748;12.106;2023-02-19T08:45:14;9.80;99.90
12632;DHT22;6381;45.748;12.106;2023-02-19T08:47:43;9.90;99.90
12632;DHT22;6381;45.748;12.106;2023-02-19T08:50:12;9.80;99.90
12632;DHT22;6381;45.748;12.106;2023-02-19T08:52:42;10.00;99.90
12632;DHT22;6381;45.748;12.106;2023-02-19T08:55:12;9.70;99.90
12632;DHT22;6381;45.748;12.106;2023-02-19T08:57:41;9.90;99.90
12632;DHT22;6381;45.748;12.106;2023-02-19T09:00:12;10.00;99.90
12632;DHT22;6381;45.748;12.106;2023-02-19T09:02:41;9.90;99.90
12632;DHT22;6381;45.748;12.106;2023-02-19T09:05:27;10.00;99.90
12632;DHT22;6381;45.748;12.106;2023-02-19T09:07:58;10.00;99.90
12632;DHT22;6381;45.748;12.106;2023-02-19T09:10:27;10.10;99.90
12632;DHT22;6381;45.748;12.106;2023-02-19T09:12:56;9.80;99.90
12632;DHT22;6381;45.748;12.106;2023-02-19T09:15:42;9.50;99.90
12632;DHT22;6381;45.748;12.106;2023-02-19T09:18:11;9.60;99.90
12632;DHT22;6381;45.748;12.106;2023-02-19T09:20:40;9.40;99.90
12632;DHT22;6381;45.748;12.106;2023-02-19T09:23:11;9.50;99.90
12632;DHT22;6381;45.748;12.106;2023-02-19T09:25:57;9.50;99.90
12632;DHT22;6381;45.748;12.106;2023-02-19T09:28:44;9.80;99.90
12632;DHT22;6381;45.748;12.106;2023-02-19T09:31:14;9.70;99.90
12632;DHT22;6381;45.748;12.106;2023-02-19T09:33:44;9.80;99.90
12632;DHT22;6381;45.748;12.106;2023-02-19T09:36:15;9.90;99.90
12632;DHT22;6381;45.748;12.106;2023-02-19T09:38:46;9.80;99.90
12632;DHT22;6381;45.748;12.106;2023-02-19T09:41:18;10.00;99.90
12632;DHT22;6381;45.748;12.106;2023-02-19T09:43:50;9.90;99.90
12632;DHT22;6381;45.748;12.106;2023-02-19T09:46:26;9.80;99.90
12632;DHT22;6381;45.748;12.106;2023-02-19T09:49:01;9.60;99.90
12632;DHT22;6381;45.748;12.106;2023-02-19T09:51:33;9.80;99.90
12632;DHT22;6381;45.748;12.106;2023-02-19T09:54:09;9.90;99.90
12632;DHT22;6381;45.748;12.106;2023-02-19T09:56:39;9.70;99.90
12632;DHT22;6381;45.748;12.106;2023-02-19T09:59:17;10.00;99.90
12632;DHT22;6381;45.748;12.106;2023-02-19T10:01:49;10.00;99.90
12632;DHT22;6381;45.748;12.106;2023-02-19T10:04:20;9.70;99.90
12632;DHT22;6381;45.748;12.106;2023-02-19T10:06:49;9.80;99.90
12632;DHT22;6381;45.748;12.106;2023-02-19T10:09:23;9.80;99.90
12632;DHT22;6381;45.748;12.106;2023-02-19T10:11:54;9.90;99.90
12632;DHT22;6381;45.748;12.106;2023-02-19T10:14:29;9.80;99.90
12632;DHT22;6381;45.748;12.106;2023-02-19T10:17:03;10.00;99.90
12632;DHT22;6381;45.748;12.106;2023-02-19T10:19:33;10.00;99.90
12632;DHT22;6381;45.748;12.106;2023-02-19T10:22:02;10.00;99.90
12632;DHT22;6381;45.748;12.106;2023-02-19T10:24:33;10.10;99.90
12632;DHT22;6381;45.748;12.106;2023-02-19T10:27:10;10.10;99.90
12632;DHT22;6381;45.748;12.106;2023-02-19T10:29:39;10.10;99.90
12632;DHT22;6381;45.748;12.106;2023-02-19T10:32:13;10.10;99.90
12632;DHT22;6381;45.748;12.106;2023-02-19T10:34:43;10.40;99.90
12632;DHT22;6381;45.748;12.106;2023-02-19T10:37:14;10.40;99.90
12632;DHT22;6381;45.748;12.106;2023-02-19T10:39:49;10.40;99.90
12632;DHT22;6381;45.748;12.106;2023-02-19T10:42:44;10.30;99.90
12632;DHT22;6381;45.748;12.106;2023-02-19T10:45:37;10.50;99.90
12632;DHT22;6381;45.748;12.106;2023-02-19T10:48:08;10.40;99.90
12632;DHT22;6381;45.748;12.106;2023-02-19T10:50:51;10.50;99.90
12632;DHT22;6381;45.748;12.106;2023-02-19T10:53:41;11.30;99.90
12632;DHT22;6381;45.748;12.106;2023-02-19T10:56:14;13.10;99.90
12632;DHT22;6381;45.748;12.106;2023-02-19T10:58:44;14.90;99.90
12632;DHT22;6381;45.748;12.106;2023-02-19T11:01:18;17.20;99.00
12632;DHT22;6381;45.748;12.106;2023-02-19T11:03:49;17.60;95.50
12632;DHT22;6381;45.748;12.106;2023-02-19T11:06:20;16.60;92.00
12632;DHT22;6381;45.748;12.106;2023-02-19T11:08:56;15.10;93.70
12632;DHT22;6381;45.748;12.106;2023-02-19T11:11:32;13.50;96.60
12632;DHT22;6381;45.748;12.106;2023-02-19T11:14:22;13.00;99.70
12632;DHT22;6381;45.748;12.106;2023-02-19T11:17:21;12.70;99.90
12632;DHT22;6381;45.748;12.106;2023-02-19T11:19:52;12.30;99.90
12632;DHT22;6381;45.748;12.106;2023-02-19T11:22:30;11.70;99.90
12632;DHT22;6381;45.748;12.106;2023-02-19T11:25:03;11.60;99.90
12632;DHT22;6381;45.748;12.106;2023-02-19T11:27:34;11.60;99.90
12632;DHT22;6381;45.748;12.106;2023-02-19T11:30:32;11.40;99.90
12632;DHT22;6381;45.748;12.106;2023-02-19T11:33:23;11.30;99.90
12632;DHT22;6381;45.748;12.106;2023-02-19T11:36:04;11.10;99.90
12632;DHT22;6381;45.748;12.106;2023-02-19T11:39:17;11.00;99.90
12632;DHT22;6381;45.748;12.106;2023-02-19T11:42:08;11.00;99.90
12632;DHT22;6381;45.748;12.106;2023-02-19T11:51:23;11.10;99.90
12632;DHT22;6381;45.748;12.106;2023-02-19T11:54:07;11.20;99.90
12632;DHT22;6381;45.748;12.106;2023-02-19T11:57:01;11.10;99.90
12632;DHT22;6381;45.748;12.106;2023-02-19T11:59:36;11.30;99.90
12632;DHT22;6381;45.748;12.106;2023-02-19T12:02:28;11.50;99.90
12632;DHT22;6381;45.748;12.106;2023-02-19T12:05:17;11.40;99.90
12632;DHT22;6381;45.748;12.106;2023-02-19T12:11:15;11.50;99.90
12632;DHT22;6381;45.748;12.106;2023-02-19T12:14:15;11.20;99.90
12632;DHT22;6381;45.748;12.106;2023-02-19T12:17:09;11.40;99.90
12632;DHT22;6381;45.748;12.106;2023-02-19T12:19:54;11.60;99.90
12632;DHT22;6381;45.748;12.106;2023-02-19T12:22:49;11.50;99.90
12632;DHT22;6381;45.748;12.106;2023-02-19T12:28:40;11.00;99.90
12632;DHT22;6381;45.748;12.106;2023-02-19T12:31:19;11.00;99.90
12632;DHT22;6381;45.748;12.106;2023-02-19T12:34:20;11.10;99.90
12632;DHT22;6381;45.748;12.106;2023-02-19T12:37:37;11.50;99.90
12632;DHT22;6381;45.748;12.106;2023-02-19T12:40:17;11.60;99.90
12632;DHT22;6381;45.748;12.106;2023-02-19T12:42:56;11.80;99.90
12632;DHT22;6381;45.748;12.106;2023-02-19T12:45:34;11.80;99.90
12632;DHT22;6381;45.748;12.106;2023-02-19T12:48:28;11.50;99.90
12632;DHT22;6381;45.748;12.106;2023-02-19T12:51:03;11.40;99.90
12632;DHT22;6381;45.748;12.106;2023-02-19T12:53:39;11.40;99.90
12632;DHT22;6381;45.748;12.106;2023-02-19T12:56:13;11.70;99.90
12632;DHT22;6381;45.748;12.106;2023-02-19T12:59:03;11.70;99.90
12632;DHT22;6381;45.748;12.106;2023-02-19T13:01:41;11.80;99.90
12632;DHT22;6381;45.748;12.106;2023-02-19T13:04:17;12.00;99.90
12632;DHT22;6381;45.748;12.106;2023-02-19T13:06:54;11.50;99.90
12632;DHT22;6381;45.748;12.106;2023-02-19T13:09:29;11.60;99.90
12632;DHT22;6381;45.748;12.106;2023-02-19T13:12:22;11.70;99.90
12632;DHT22;6381;45.748;12.106;2023-02-19T13:14:55;11.30;99.90
12632;DHT22;6381;45.748;12.106;2023-02-19T13:17:28;11.70;99.90
12632;DHT22;6381;45.748;12.106;2023-02-19T13:20:21;11.70;99.90
12632;DHT22;6381;45.748;12.106;2023-02-19T13:23:13;11.90;99.90
12632;DHT22;6381;45.748;12.106;2023-02-19T13:26:23;11.90;99.90
12632;DHT22;6381;45.748;12.106;2023-02-19T13:29:08;11.60;99.90
12632;DHT22;6381;45.748;12.106;2023-02-19T13:35:01;11.70;99.90
12632;DHT22;6381;45.748;12.106;2023-02-19T13:37:32;11.80;99.90
12632;DHT22;6381;45.748;12.106;2023-02-19T13:40:04;11.90;99.90
12632;DHT22;6381;45.748;12.106;2023-02-19T13:42:36;12.20;99.90
12632;DHT22;6381;45.748;12.106;2023-02-19T13:45:05;12.50;99.90
12632;DHT22;6381;45.748;12.106;2023-02-19T13:48:03;12.20;99.90
12632;DHT22;6381;45.748;12.106;2023-02-19T13:50:42;11.70;99.90
12632;DHT22;6381;45.748;12.106;2023-02-19T13:53:49;12.00;99.90
12632;DHT22;6381;45.748;12.106;2023-02-19T13:56:38;12.00;99.90
12632;DHT22;6381;45.748;12.106;2023-02-19T13:59:33;12.10;99.90
12632;DHT22;6381;45.748;12.106;2023-02-19T14:02:26;11.80;99.90
12632;DHT22;6381;45.748;12.106;2023-02-19T14:04:57;11.80;99.90
12632;DHT22;6381;45.748;12.106;2023-02-19T14:07:48;11.90;99.90
12632;DHT22;6381;45.748;12.106;2023-02-19T14:13:57;11.80;99.90
12632;DHT22;6381;45.748;12.106;2023-02-19T14:19:50;11.80;99.90
12632;DHT22;6381;45.748;12.106;2023-02-19T14:22:48;11.90;99.90
12632;DHT22;6381;45.748;12.106;2023-02-19T14:25:38;11.90;99.90
12632;DHT22;6381;45.748;12.106;2023-02-19T14:28:27;12.00;99.90
12632;DHT22;6381;45.748;12.106;2023-02-19T14:31:02;11.90;99.90
12632;DHT22;6381;45.748;12.106;2023-02-19T14:33:59;11.90;99.90
12632;DHT22;6381;45.748;12.106;2023-02-19T14:36:33;11.70;99.90
12632;DHT22;6381;45.748;12.106;2023-02-19T14:39:05;11.80;99.90
12632;DHT22;6381;45.748;12.106;2023-02-19T14:41:40;11.70;99.90
12632;DHT22;6381;45.748;12.106;2023-02-19T14:44:15;11.70;99.90
12632;DHT22;6381;45.748;12.106;2023-02-19T14:46:50;11.60;99.90
12632;DHT22;6381;45.748;12.106;2023-02-19T14:49:26;11.60;99.90
12632;DHT22;6381;45.748;12.106;2023-02-19T14:51:58;11.70;99.90
12632;DHT22;6381;45.748;12.106;2023-02-19T14:54:36;11.70;99.90
12632;DHT22;6381;45.748;12.106;2023-02-19T14:57:13;11.80;99.90
12632;DHT22;6381;45.748;12.106;2023-02-19T14:59:52;11.80;99.90
12632;DHT22;6381;45.748;12.106;2023-02-19T15:02:25;11.60;99.90
12632;DHT22;6381;45.748;12.106;2023-02-19T15:04:58;11.70;99.90
12632;DHT22;6381;45.748;12.106;2023-02-19T15:07:29;11.90;99.90
12632;DHT22;6381;45.748;12.106;2023-02-19T15:10:02;12.30;99.90
12632;DHT22;6381;45.748;12.106;2023-02-19T15:12:34;12.50;99.90
12632;DHT22;6381;45.748;12.106;2023-02-19T15:15:29;12.90;99.90
12632;DHT22;6381;45.748;12.106;2023-02-19T15:18:00;12.60;99.90
12632;DHT22;6381;45.748;12.106;2023-02-19T15:20:34;12.80;99.90
12632;DHT22;6381;45.748;12.106;2023-02-19T15:23:06;12.80;99.90
12632;DHT22;6381;45.748;12.106;2023-02-19T15:25:54;12.80;99.90
12632;DHT22;6381;45.748;12.106;2023-02-19T15:28:30;12.90;99.90
12632;DHT22;6381;45.748;12.106;2023-02-19T15:31:16;12.80;99.80
12632;DHT22;6381;45.748;12.106;2023-02-19T15:33:50;13.20;98.80
12632;DHT22;6381;45.748;12.106;2023-02-19T15:36:26;13.00;98.80
12632;DHT22;6381;45.748;12.106;2023-02-19T15:39:19;13.00;98.80
12632;DHT22;6381;45.748;12.106;2023-02-19T15:42:08;12.70;98.40
12632;DHT22;6381;45.748;12.106;2023-02-19T15:44:44;12.80;98.80
12632;DHT22;6381;45.748;12.106;2023-02-19T15:47:37;12.70;98.60
12632;DHT22;6381;45.748;12.106;2023-02-19T15:50:28;12.70;99.20
12632;DHT22;6381;45.748;12.106;2023-02-19T15:53:02;12.70;98.90
12632;DHT22;6381;45.748;12.106;2023-02-19T15:55:35;12.20;99.40
12632;DHT22;6381;45.748;12.106;2023-02-19T15:58:11;12.40;99.80
12632;DHT22;6381;45.748;12.106;2023-02-19T16:00:46;12.40;99.80
12632;DHT22;6381;45.748;12.106;2023-02-19T16:03:18;12.00;99.90
12632;DHT22;6381;45.748;12.106;2023-02-19T16:06:08;12.10;99.90
12632;DHT22;6381;45.748;12.106;2023-02-19T16:08:40;12.00;99.90
12632;DHT22;6381;45.748;12.106;2023-02-19T16:11:44;11.80;99.90
12632;DHT22;6381;45.748;12.106;2023-02-19T16:14:32;11.60;99.90
12632;DHT22;6381;45.748;12.106;2023-02-19T16:17:20;11.50;99.90
12632;DHT22;6381;45.748;12.106;2023-02-19T16:19:55;11.40;99.90
12632;DHT22;6381;45.748;12.106;2023-02-19T16:22:27;11.60;99.90
12632;DHT22;6381;45.748;12.106;2023-02-19T16:24:59;11.70;99.90
12632;DHT22;6381;45.748;12.106;2023-02-19T16:27:31;11.60;99.90
12632;DHT22;6381;45.748;12.106;2023-02-19T16:30:03;11.70;99.90
12632;DHT22;6381;45.748;12.106;2023-02-19T16:33:30;11.60;99.90
12632;DHT22;6381;45.748;12.106;2023-02-19T16:36:22;11.40;99.90
12632;DHT22;6381;45.748;12.106;2023-02-19T16:39:02;11.40;99.90
12632;DHT22;6381;45.748;12.106;2023-02-19T16:41:34;11.20;99.90
12632;DHT22;6381;45.748;12.106;2023-02-19T16:44:33;11.30;99.90
12632;DHT22;6381;45.748;12.106;2023-02-19T16:47:05;11.00;99.90
12632;DHT22;6381;45.748;12.106;2023-02-19T16:49:36;10.90;99.90
12632;DHT22;6381;45.748;12.106;2023-02-19T16:52:06;10.80;99.90
12632;DHT22;6381;45.748;12.106;2023-02-19T16:54:36;10.70;99.90
12632;DHT22;6381;45.748;12.106;2023-02-19T16:57:24;10.90;99.90
12632;DHT22;6381;45.748;12.106;2023-02-19T17:00:16;10.90;99.90
12632;DHT22;6381;45.748;12.106;2023-02-19T17:02:46;10.90;99.90
12632;DHT22;6381;45.748;12.106;2023-02-19T17:05:16;10.90;99.90
12632;DHT22;6381;45.748;12.106;2023-02-19T17:07:45;10.80;99.90